createdAt,value
2017-04-18T00:00:25.059Z,0
2017-04-18T00:01:25.076Z,0
2017-04-18T00:02:24.995Z,0
2017-04-18T00:03:24.966Z,0
2017-04-18T00:04:25.195Z,0
2017-04-18T00:05:24.961Z,0
2017-04-18T00:06:24.894Z,0
2017-04-18T00:07:24.865Z,0
2017-04-18T00:08:24.894Z,0
2017-04-18T00:09:24.813Z,0
2017-04-18T00:10:24.789Z,0
2017-04-18T00:11:24.761Z,0
2017-04-18T00:12:24.737Z,0
2017-04-18T00:13:24.761Z,0
2017-04-18T00:14:24.684Z,0
2017-04-18T00:15:24.657Z,0
2017-04-18T00:16:24.636Z,0
2017-04-18T00:17:24.485Z,0
2017-04-18T00:18:24.583Z,0
2017-04-18T00:19:24.556Z,0
2017-04-18T00:20:24.529Z,0
2017-04-18T00:21:24.507Z,0
2017-04-18T00:22:24.473Z,0
2017-04-18T00:23:24.500Z,0
2017-04-18T00:24:24.418Z,0
2017-04-18T00:25:24.403Z,0
2017-04-18T00:26:24.366Z,0
2017-04-18T00:27:24.344Z,0
2017-04-18T00:28:24.323Z,0
2017-04-18T00:29:24.297Z,0
2017-04-18T00:30:24.256Z,0
2017-04-18T00:31:24.229Z,0
2017-04-18T00:32:24.212Z,0
2017-04-18T00:33:24.181Z,0
2017-04-18T00:34:24.164Z,0
2017-04-18T00:35:24.137Z,0
2017-04-18T00:36:23.514Z,0
2017-04-18T00:37:24.076Z,0
2017-04-18T00:38:24.071Z,0
2017-04-18T00:39:24.081Z,0
2017-04-18T00:40:24.016Z,0
2017-04-18T00:41:23.985Z,0
2017-04-18T00:42:23.956Z,0
2017-04-18T00:43:23.641Z,0
2017-04-18T00:44:23.894Z,0
2017-04-18T00:45:23.869Z,0
2017-04-18T00:46:23.547Z,0
2017-04-18T00:47:23.824Z,0
2017-04-18T00:48:23.797Z,0
2017-04-18T00:49:23.767Z,0
2017-04-18T00:50:23.745Z,0
2017-04-18T00:51:23.722Z,0
2017-04-18T00:52:24.036Z,0
2017-04-18T00:53:23.415Z,0
2017-04-18T00:54:23.637Z,0
2017-04-18T00:55:23.617Z,0
2017-04-18T00:56:23.287Z,0
2017-04-18T00:57:23.552Z,0
2017-04-18T00:58:23.241Z,0
2017-04-18T00:59:23.510Z,0
2017-04-18T01:00:23.192Z,0
2017-04-18T01:01:23.155Z,0
2017-04-18T01:02:23.428Z,0
2017-04-18T01:03:23.413Z,0
2017-04-18T01:04:23.382Z,0
2017-04-18T01:05:23.356Z,0
2017-04-18T01:06:23.379Z,0
2017-04-18T01:07:23.305Z,0
2017-04-18T01:08:23.324Z,0
2017-04-18T01:09:23.576Z,0
2017-04-18T01:10:22.925Z,0
2017-04-18T01:11:23.203Z,0
2017-04-18T01:12:23.187Z,0
2017-04-18T01:13:23.153Z,0
2017-04-18T01:14:23.175Z,0
2017-04-18T01:15:23.101Z,0
2017-04-18T01:16:23.068Z,0
2017-04-18T01:17:23.047Z,0
2017-04-18T01:18:23.025Z,0
2017-04-18T01:19:22.991Z,0
2017-04-18T01:20:22.667Z,0
2017-04-18T01:21:22.946Z,0
2017-04-18T01:22:22.921Z,0
2017-04-18T01:23:22.896Z,0
2017-04-18T01:24:22.864Z,0
2017-04-18T01:25:23.244Z,0
2017-04-18T01:26:22.819Z,0
2017-04-18T01:27:22.834Z,0
2017-04-18T01:28:22.754Z,0
2017-04-18T01:29:22.731Z,0
2017-04-18T01:30:22.848Z,0
2017-04-18T01:31:22.895Z,0
2017-04-18T01:32:22.676Z,0
2017-04-18T01:33:23.936Z,0
2017-04-18T01:34:22.605Z,0
2017-04-18T01:35:37.176Z,0
2017-04-18T01:36:22.550Z,0
2017-04-18T01:37:22.541Z,0
2017-04-18T01:38:22.504Z,0
2017-04-18T01:39:22.478Z,0
2017-04-18T01:40:22.446Z,0
2017-04-18T01:41:22.434Z,0
2017-04-18T01:42:22.503Z,0
2017-04-18T01:43:22.530Z,0
2017-04-18T01:44:22.347Z,0
2017-04-18T01:45:22.320Z,0
2017-04-18T01:46:22.299Z,0
2017-04-18T01:47:22.313Z,0
2017-04-18T01:48:22.538Z,0
2017-04-18T01:49:22.220Z,0
2017-04-18T01:50:22.175Z,0
2017-04-18T01:51:22.156Z,0
2017-04-18T01:52:23.534Z,0
2017-04-18T01:53:22.110Z,0
2017-04-18T01:54:22.141Z,0
2017-04-18T01:55:22.070Z,0
2017-04-18T01:56:22.330Z,0
2017-04-18T01:57:21.701Z,0
2017-04-18T01:58:22.024Z,0
2017-04-18T01:59:22.095Z,0
2017-04-18T02:00:21.936Z,0
2017-04-18T02:01:21.898Z,0
2017-04-18T02:02:21.876Z,0
2017-04-18T02:03:21.551Z,0
2017-04-18T02:04:21.822Z,0
2017-04-18T02:05:21.844Z,0
2017-04-18T02:06:21.768Z,0
2017-04-18T02:07:21.733Z,0
2017-04-18T02:08:21.729Z,0
2017-04-18T02:09:21.702Z,0
2017-04-18T02:10:21.659Z,0
2017-04-18T02:11:21.692Z,0
2017-04-18T02:12:21.611Z,0
2017-04-18T02:13:36.188Z,0
2017-04-18T02:14:22.757Z,0
2017-04-18T02:15:21.749Z,0
2017-04-18T02:16:21.703Z,0
2017-04-18T02:17:21.224Z,0
2017-04-18T02:18:21.457Z,0
2017-04-18T02:19:21.421Z,0
2017-04-18T02:20:21.392Z,0
2017-04-18T02:21:21.374Z,0
2017-04-18T02:22:21.337Z,0
2017-04-18T02:23:21.432Z,0
2017-04-18T02:24:21.284Z,0
2017-04-18T02:25:21.257Z,0
2017-04-18T02:26:21.844Z,0
2017-04-18T02:27:21.214Z,0
2017-04-18T02:28:21.189Z,0
2017-04-18T02:29:21.235Z,0
2017-04-18T02:30:20.835Z,0
2017-04-18T02:31:21.106Z,0
2017-04-18T02:32:20.779Z,0
2017-04-18T02:33:21.058Z,0
2017-04-18T02:34:21.041Z,0
2017-04-18T02:35:20.694Z,0
2017-04-18T02:36:20.671Z,0
2017-04-18T02:37:21.200Z,0
2017-04-18T02:38:20.632Z,0
2017-04-18T02:39:20.894Z,0
2017-04-18T02:40:21.094Z,0
2017-04-18T02:41:20.869Z,0
2017-04-18T02:42:20.830Z,0
2017-04-18T02:43:21.245Z,0
2017-04-18T02:44:20.775Z,0
2017-04-18T02:45:20.742Z,0
2017-04-18T02:46:20.711Z,0
2017-04-18T02:47:20.685Z,0
2017-04-18T02:48:20.525Z,0
2017-04-18T02:49:20.635Z,0
2017-04-18T02:50:20.604Z,0
2017-04-18T02:51:20.583Z,0
2017-04-18T02:52:20.561Z,0
2017-04-18T02:53:20.527Z,0
2017-04-18T02:54:20.501Z,0
2017-04-18T02:55:20.477Z,0
2017-04-18T02:56:20.454Z,0
2017-04-18T02:57:20.414Z,0
2017-04-18T02:58:20.391Z,0
2017-04-18T02:59:20.373Z,0
2017-04-18T03:00:20.444Z,0
2017-04-18T03:01:20.317Z,0
2017-04-18T03:02:20.287Z,0
2017-04-18T03:03:20.252Z,0
2017-04-18T03:04:20.246Z,0
2017-04-18T03:05:20.207Z,0
2017-04-18T03:06:20.179Z,0
2017-04-18T03:07:20.154Z,0
2017-04-18T03:08:20.125Z,0
2017-04-18T03:09:20.106Z,0
2017-04-18T03:10:21.679Z,0
2017-04-18T03:11:20.059Z,0
2017-04-18T03:12:20.526Z,0
2017-04-18T03:13:19.998Z,0
2017-04-18T03:14:19.969Z,0
2017-04-18T03:15:19.647Z,0
2017-04-18T03:16:19.927Z,0
2017-04-18T03:17:20.131Z,0
2017-04-18T03:18:19.917Z,0
2017-04-18T03:19:19.841Z,0
2017-04-18T03:20:19.820Z,0
2017-04-18T03:21:19.788Z,0
2017-04-18T03:22:19.763Z,0
2017-04-18T03:23:19.789Z,0
2017-04-18T03:24:19.747Z,0
2017-04-18T03:25:19.734Z,0
2017-04-18T03:26:19.668Z,0
2017-04-18T03:27:19.684Z,0
2017-04-18T03:28:19.654Z,0
2017-04-18T03:29:19.588Z,0
2017-04-18T03:30:19.852Z,0
2017-04-18T03:31:19.219Z,0
2017-04-18T03:32:19.497Z,0
2017-04-18T03:33:19.501Z,0
2017-04-18T03:34:19.247Z,0
2017-04-18T03:35:19.414Z,0
2017-04-18T03:36:19.384Z,0
2017-04-18T03:37:19.453Z,0
2017-04-18T03:38:19.335Z,0
2017-04-18T03:39:19.308Z,0
2017-04-18T03:40:19.288Z,0
2017-04-18T03:41:19.256Z,0
2017-04-18T03:42:19.225Z,0
2017-04-18T03:43:19.209Z,0
2017-04-18T03:44:18.881Z,0
2017-04-18T03:45:19.146Z,0
2017-04-18T03:46:19.128Z,0
2017-04-18T03:47:19.095Z,0
2017-04-18T03:48:19.076Z,0
2017-04-18T03:49:19.059Z,0
2017-04-18T03:50:19.420Z,0
2017-04-18T03:51:18.998Z,0
2017-04-18T03:52:18.962Z,0
2017-04-18T03:53:18.944Z,0
2017-04-18T03:54:18.915Z,0
2017-04-18T03:55:18.888Z,0
2017-04-18T03:56:18.874Z,0
2017-04-18T03:57:18.582Z,0
2017-04-18T03:58:18.806Z,0
2017-04-18T03:59:18.784Z,0
2017-04-18T04:00:20.094Z,0
2017-04-18T04:01:18.718Z,0
2017-04-18T04:02:18.702Z,0
2017-04-18T04:03:18.667Z,0
2017-04-18T04:04:18.358Z,0
2017-04-18T04:05:18.621Z,0
2017-04-18T04:06:18.589Z,0
2017-04-18T04:07:18.556Z,0
2017-04-18T04:08:18.485Z,0
2017-04-18T04:09:18.506Z,0
2017-04-18T04:10:18.477Z,0
2017-04-18T04:11:18.448Z,0
2017-04-18T04:12:18.476Z,0
2017-04-18T04:13:18.108Z,0
2017-04-18T04:14:18.391Z,0
2017-04-18T04:15:18.356Z,0
2017-04-18T04:16:18.318Z,0
2017-04-18T04:17:18.300Z,0
2017-04-18T04:18:17.969Z,0
2017-04-18T04:19:17.938Z,5
2017-04-18T04:20:18.221Z,5
2017-04-18T04:21:18.186Z,5
2017-04-18T04:22:18.158Z,5
2017-04-18T04:23:17.830Z,5
2017-04-18T04:24:18.113Z,5
2017-04-18T04:25:17.780Z,5
2017-04-18T04:26:18.048Z,10
2017-04-18T04:27:18.034Z,10
2017-04-18T04:28:18.109Z,10
2017-04-18T04:29:18.228Z,10
2017-04-18T04:30:17.952Z,10
2017-04-18T04:31:17.963Z,15
2017-04-18T04:32:17.894Z,15
2017-04-18T04:33:17.871Z,15
2017-04-18T04:34:17.834Z,15
2017-04-18T04:35:17.815Z,20
2017-04-18T04:36:17.858Z,20
2017-04-18T04:37:17.802Z,20
2017-04-18T04:38:17.741Z,20
2017-04-18T04:39:17.714Z,25
2017-04-18T04:40:17.671Z,25
2017-04-18T04:41:17.345Z,25
2017-04-18T04:42:17.618Z,25
2017-04-18T04:43:17.601Z,30
2017-04-18T04:44:17.622Z,30
2017-04-18T04:45:17.544Z,30
2017-04-18T04:46:17.567Z,30
2017-04-18T04:47:17.632Z,35
2017-04-18T04:48:17.465Z,35
2017-04-18T04:49:17.447Z,35
2017-04-18T04:50:17.406Z,40
2017-04-18T04:51:17.082Z,40
2017-04-18T04:52:17.365Z,45
2017-04-18T04:53:17.321Z,45
2017-04-18T04:54:17.296Z,45
2017-04-18T04:55:17.276Z,45
2017-04-18T04:56:17.245Z,50
2017-04-18T04:57:17.234Z,60
2017-04-18T04:58:17.191Z,60
2017-04-18T04:59:17.161Z,55
2017-04-18T05:00:17.143Z,55
2017-04-18T05:01:17.117Z,55
2017-04-18T05:02:16.782Z,60
2017-04-18T05:03:16.763Z,60
2017-04-18T05:04:17.033Z,60
2017-04-18T05:05:17.010Z,60
2017-04-18T05:06:31.590Z,60
2017-04-18T05:07:18.178Z,60
2017-04-18T05:08:16.920Z,60
2017-04-18T05:09:16.899Z,65
2017-04-18T05:10:17.472Z,65
2017-04-18T05:11:16.851Z,65
2017-04-18T05:12:16.819Z,70
2017-04-18T05:13:17.351Z,75
2017-04-18T05:14:16.465Z,80
2017-04-18T05:15:16.791Z,90
2017-04-18T05:16:16.459Z,80
2017-04-18T05:17:16.681Z,85
2017-04-18T05:18:16.659Z,90
2017-04-18T05:19:16.689Z,85
2017-04-18T05:20:16.629Z,85
2017-04-18T05:21:16.633Z,85
2017-04-18T05:22:16.600Z,85
2017-04-18T05:23:16.541Z,85
2017-04-18T05:24:16.606Z,85
2017-04-18T05:25:16.479Z,85
2017-04-18T05:26:16.191Z,85
2017-04-18T05:27:16.124Z,85
2017-04-18T05:28:16.444Z,90
2017-04-18T05:29:16.370Z,80
2017-04-18T05:30:16.337Z,70
2017-04-18T05:31:16.319Z,70
2017-04-18T05:32:15.996Z,65
2017-04-18T05:33:16.269Z,70
2017-04-18T05:34:16.536Z,70
2017-04-18T05:35:16.202Z,70
2017-04-18T05:36:16.238Z,70
2017-04-18T05:37:16.164Z,80
2017-04-18T05:38:16.137Z,85
2017-04-18T05:39:15.806Z,95
2017-04-18T05:40:16.079Z,110
2017-04-18T05:41:16.056Z,125
2017-04-18T05:42:16.025Z,125
2017-04-18T05:43:16.002Z,110
2017-04-18T05:44:15.973Z,100
2017-04-18T05:45:15.650Z,95
2017-04-18T05:46:15.922Z,90
2017-04-18T05:47:15.900Z,95
2017-04-18T05:48:15.873Z,95
2017-04-18T05:49:15.849Z,100
2017-04-18T05:50:15.816Z,110
2017-04-18T05:51:15.783Z,120
2017-04-18T05:52:30.062Z,130
2017-04-18T05:53:15.745Z,130
2017-04-18T05:54:15.718Z,120
2017-04-18T05:55:15.687Z,120
2017-04-18T05:56:15.662Z,120
2017-04-18T05:57:15.761Z,125
2017-04-18T05:58:15.611Z,140
2017-04-18T05:59:30.186Z,155
2017-04-18T06:00:15.553Z,170
2017-04-18T06:01:15.539Z,205
2017-04-18T06:02:15.219Z,245
2017-04-18T06:03:15.478Z,345
2017-04-18T06:04:15.446Z,325
2017-04-18T06:05:15.141Z,440
2017-04-18T06:06:15.402Z,495
2017-04-18T06:07:15.372Z,485
2017-04-18T06:08:15.351Z,480
2017-04-18T06:09:14.768Z,470
2017-04-18T06:10:15.310Z,460
2017-04-18T06:11:15.268Z,470
2017-04-18T06:12:14.949Z,480
2017-04-18T06:13:15.229Z,535
2017-04-18T06:14:15.196Z,545
2017-04-18T06:15:15.177Z,505
2017-04-18T06:16:14.906Z,500
2017-04-18T06:17:15.184Z,500
2017-04-18T06:18:14.837Z,530
2017-04-18T06:19:15.089Z,485
2017-04-18T06:20:15.084Z,540
2017-04-18T06:21:15.039Z,575
2017-04-18T06:22:15.019Z,555
2017-04-18T06:23:15.002Z,565
2017-04-18T06:24:14.985Z,580
2017-04-18T06:25:15.102Z,615
2017-04-18T06:26:14.755Z,630
2017-04-18T06:27:14.902Z,645
2017-04-18T06:28:14.894Z,665
2017-04-18T06:29:14.876Z,675
2017-04-18T06:30:14.847Z,675
2017-04-18T06:31:14.822Z,670
2017-04-18T06:32:14.799Z,680
2017-04-18T06:33:14.785Z,690
2017-04-18T06:34:14.773Z,690
2017-04-18T06:35:14.491Z,690
2017-04-18T06:36:14.711Z,695
2017-04-18T06:37:14.683Z,700
2017-04-18T06:38:16.380Z,710
2017-04-18T06:39:14.906Z,720
2017-04-18T06:40:14.889Z,750
2017-04-18T06:41:14.832Z,775
2017-04-18T06:42:14.609Z,450
2017-04-18T06:43:14.576Z,405
2017-04-18T06:44:14.554Z,710
2017-04-18T06:45:14.530Z,735
2017-04-18T06:46:14.277Z,805
2017-04-18T06:47:14.493Z,630
2017-04-18T06:48:14.522Z,410
2017-04-18T06:49:14.657Z,655
2017-04-18T06:50:14.134Z,650
2017-04-18T06:51:14.406Z,825
2017-04-18T06:52:14.429Z,915
2017-04-18T06:53:14.369Z,940
2017-04-18T06:54:14.343Z,750
2017-04-18T06:55:14.326Z,890
2017-04-18T06:56:14.303Z,950
2017-04-18T06:57:13.985Z,965
2017-04-18T06:58:14.321Z,955
2017-04-18T06:59:14.251Z,930
2017-04-18T07:00:13.925Z,965
2017-04-18T07:01:14.201Z,1000
2017-04-18T07:02:14.224Z,950
2017-04-18T07:03:14.265Z,760
2017-04-18T07:04:13.844Z,765
2017-04-18T07:05:14.013Z,795
2017-04-18T07:06:14.111Z,915
2017-04-18T07:07:14.081Z,920
2017-04-18T07:08:14.062Z,1065
2017-04-18T07:09:14.349Z,470
2017-04-18T07:10:14.032Z,700
2017-04-18T07:11:14.024Z,725
2017-04-18T07:12:14.096Z,935
2017-04-18T07:13:13.969Z,1075
2017-04-18T07:14:14.121Z,1065
2017-04-18T07:15:13.937Z,1045
2017-04-18T07:16:13.918Z,440
2017-04-18T07:17:13.905Z,295
2017-04-18T07:18:13.954Z,295
2017-04-18T07:19:13.858Z,465
2017-04-18T07:20:13.545Z,360
2017-04-18T07:21:13.528Z,425
2017-04-18T07:22:13.790Z,340
2017-04-18T07:23:13.799Z,340
2017-04-18T07:24:13.771Z,370
2017-04-18T07:25:13.739Z,360
2017-04-18T07:26:13.715Z,505
2017-04-18T07:27:13.696Z,435
2017-04-18T07:28:13.684Z,510
2017-04-18T07:29:13.379Z,465
2017-04-18T07:30:13.787Z,450
2017-04-18T07:31:13.312Z,550
2017-04-18T07:32:13.344Z,600
2017-04-18T07:33:13.616Z,695
2017-04-18T07:34:13.549Z,935
2017-04-18T07:35:13.216Z,530
2017-04-18T07:36:13.558Z,1230
2017-04-18T07:37:13.494Z,1095
2017-04-18T07:38:13.222Z,1205
2017-04-18T07:39:13.461Z,405
2017-04-18T07:40:13.422Z,400
2017-04-18T07:41:13.102Z,410
2017-04-18T07:42:13.083Z,410
2017-04-18T07:43:13.401Z,395
2017-04-18T07:44:13.043Z,375
2017-04-18T07:45:13.314Z,390
2017-04-18T07:46:13.513Z,390
2017-04-18T07:47:13.281Z,400
2017-04-18T07:48:27.866Z,420
2017-04-18T07:49:13.238Z,440
2017-04-18T07:50:12.909Z,455
2017-04-18T07:51:13.198Z,460
2017-04-18T07:52:12.863Z,460
2017-04-18T07:53:13.182Z,455
2017-04-18T07:54:13.139Z,435
2017-04-18T07:55:13.326Z,450
2017-04-18T07:56:13.081Z,430
2017-04-18T07:57:13.063Z,425
2017-04-18T07:58:13.038Z,420
2017-04-18T07:59:13.029Z,425
2017-04-18T08:00:12.690Z,425
2017-04-18T08:01:13.010Z,425
2017-04-18T08:02:12.953Z,415
2017-04-18T08:03:13.022Z,430
2017-04-18T08:04:12.912Z,465
2017-04-18T08:05:12.591Z,520
2017-04-18T08:06:12.862Z,570
2017-04-18T08:07:12.843Z,595
2017-04-18T08:08:12.863Z,590
2017-04-18T08:09:12.804Z,570
2017-04-18T08:10:12.816Z,540
2017-04-18T08:11:12.751Z,480
2017-04-18T08:12:12.730Z,400
2017-04-18T08:13:12.866Z,335
2017-04-18T08:14:12.732Z,295
2017-04-18T08:15:12.700Z,270
2017-04-18T08:16:12.343Z,255
2017-04-18T08:17:12.617Z,270
2017-04-18T08:18:12.643Z,280
2017-04-18T08:19:12.580Z,280
2017-04-18T08:20:12.557Z,270
2017-04-18T08:21:12.574Z,235
2017-04-18T08:22:12.805Z,230
2017-04-18T08:23:12.480Z,280
2017-04-18T08:24:12.454Z,325
2017-04-18T08:25:12.439Z,295
2017-04-18T08:26:12.421Z,220
2017-04-18T08:27:12.389Z,215
2017-04-18T08:28:12.419Z,295
2017-04-18T08:29:12.375Z,365
2017-04-18T08:30:12.148Z,305
2017-04-18T08:31:12.318Z,280
2017-04-18T08:32:12.285Z,310
2017-04-18T08:33:12.261Z,370
2017-04-18T08:34:12.233Z,430
2017-04-18T08:35:11.954Z,420
2017-04-18T08:36:12.191Z,385
2017-04-18T08:37:12.178Z,360
2017-04-18T08:38:13.089Z,325
2017-04-18T08:39:12.118Z,285
2017-04-18T08:40:12.086Z,255
2017-04-18T08:41:12.076Z,250
2017-04-18T08:42:12.156Z,290
2017-04-18T08:43:12.029Z,280
2017-04-18T08:44:12.003Z,255
2017-04-18T08:45:11.994Z,230
2017-04-18T08:46:11.961Z,230
2017-04-18T08:47:11.644Z,245
2017-04-18T08:48:11.623Z,250
2017-04-18T08:49:11.894Z,260
2017-04-18T08:50:11.874Z,270
2017-04-18T08:51:11.840Z,265
2017-04-18T08:52:11.942Z,260
2017-04-18T08:53:11.796Z,250
2017-04-18T08:54:11.764Z,225
2017-04-18T08:55:11.745Z,185
2017-04-18T08:56:11.474Z,205
2017-04-18T08:57:11.700Z,265
2017-04-18T08:58:11.679Z,245
2017-04-18T08:59:11.660Z,205
2017-04-18T09:00:11.631Z,190
2017-04-18T09:01:12.568Z,180
2017-04-18T09:02:11.595Z,185
2017-04-18T09:03:25.929Z,145
2017-04-18T09:04:11.557Z,120
2017-04-18T09:05:11.522Z,115
2017-04-18T09:06:11.503Z,105
2017-04-18T09:07:11.536Z,75
2017-04-18T09:08:11.551Z,70
2017-04-18T09:09:11.429Z,85
2017-04-18T09:10:11.405Z,115
2017-04-18T09:11:11.369Z,135
2017-04-18T09:12:11.053Z,170
2017-04-18T09:13:11.343Z,200
2017-04-18T09:14:11.517Z,225
2017-04-18T09:15:11.273Z,225
2017-04-18T09:16:11.319Z,225
2017-04-18T09:17:11.236Z,240
2017-04-18T09:18:12.111Z,295
2017-04-18T09:19:11.411Z,360
2017-04-18T09:20:11.173Z,425
2017-04-18T09:21:11.131Z,475
2017-04-18T09:22:13.726Z,570
2017-04-18T09:23:11.097Z,615
2017-04-18T09:24:11.067Z,630
2017-04-18T09:25:11.347Z,1030
2017-04-18T09:26:11.037Z,2015
2017-04-18T09:27:10.997Z,980
2017-04-18T09:28:10.676Z,870
2017-04-18T09:29:10.998Z,590
2017-04-18T09:30:10.615Z,635
2017-04-18T09:31:10.909Z,1000
2017-04-18T09:32:11.137Z,1370
2017-04-18T09:33:10.442Z,1135
2017-04-18T09:34:10.845Z,700
2017-04-18T09:35:11.040Z,1800
2017-04-18T09:36:10.798Z,2160
2017-04-18T09:37:10.767Z,670
2017-04-18T09:38:10.740Z,520
2017-04-18T09:39:10.739Z,485
2017-04-18T09:40:10.711Z,535
2017-04-18T09:41:10.678Z,540
2017-04-18T09:42:10.685Z,510
2017-04-18T09:43:10.668Z,420
2017-04-18T09:44:10.310Z,380
2017-04-18T09:45:10.596Z,400
2017-04-18T09:46:10.268Z,600
2017-04-18T09:47:10.549Z,595
2017-04-18T09:48:12.025Z,1060
2017-04-18T09:49:10.514Z,1215
2017-04-18T09:50:10.182Z,2110
2017-04-18T09:51:10.164Z,2195
2017-04-18T09:52:10.445Z,1335
2017-04-18T09:53:25.030Z,785
2017-04-18T09:54:10.397Z,2080
2017-04-18T09:55:10.383Z,1400
2017-04-18T09:56:10.052Z,495
2017-04-18T09:57:10.337Z,420
2017-04-18T09:58:10.313Z,490
2017-04-18T09:59:10.349Z,560
2017-04-18T10:00:10.266Z,740
2017-04-18T10:01:10.238Z,720
2017-04-18T10:02:09.969Z,850
2017-04-18T10:03:10.215Z,1005
2017-04-18T10:04:10.201Z,2080
2017-04-18T10:05:10.171Z,475
2017-04-18T10:06:09.850Z,405
2017-04-18T10:07:10.135Z,440
2017-04-18T10:08:10.111Z,560
2017-04-18T10:09:10.141Z,535
2017-04-18T10:10:10.066Z,550
2017-04-18T10:11:10.054Z,520
2017-04-18T10:12:10.030Z,470
2017-04-18T10:13:10.006Z,440
2017-04-18T10:14:09.997Z,1245
2017-04-18T10:15:09.975Z,355
2017-04-18T10:16:09.937Z,305
2017-04-18T10:17:10.530Z,310
2017-04-18T10:18:09.909Z,750
2017-04-18T10:19:09.878Z,1840
2017-04-18T10:20:09.855Z,360
2017-04-18T10:21:09.841Z,1875
2017-04-18T10:22:09.821Z,1880
2017-04-18T10:23:10.001Z,1890
2017-04-18T10:24:09.826Z,1945
2017-04-18T10:25:09.757Z,1985
2017-04-18T10:26:09.736Z,1950
2017-04-18T10:27:08.825Z,670
2017-04-18T10:28:09.698Z,590
2017-04-18T10:29:09.694Z,380
2017-04-18T10:30:09.716Z,335
2017-04-18T10:31:09.634Z,325
2017-04-18T10:32:09.621Z,395
2017-04-18T10:33:09.648Z,505
2017-04-18T10:34:09.619Z,660
2017-04-18T10:35:09.562Z,600
2017-04-18T10:36:09.540Z,505
2017-04-18T10:37:09.212Z,385
2017-04-18T10:38:09.498Z,400
2017-04-18T10:39:09.469Z,390
2017-04-18T10:40:09.439Z,355
2017-04-18T10:41:09.123Z,380
2017-04-18T10:42:09.113Z,460
2017-04-18T10:43:09.471Z,545
2017-04-18T10:44:09.412Z,650
2017-04-18T10:45:09.336Z,760
2017-04-18T10:46:09.315Z,740
2017-04-18T10:47:09.286Z,610
2017-04-18T10:48:09.269Z,515
2017-04-18T10:49:11.203Z,410
2017-04-18T10:50:10.395Z,325
2017-04-18T10:51:09.205Z,190
2017-04-18T10:52:09.203Z,140
2017-04-18T10:53:23.471Z,165
2017-04-18T10:54:09.568Z,200
2017-04-18T10:55:09.120Z,265
2017-04-18T10:56:09.100Z,340
2017-04-18T10:57:09.088Z,395
2017-04-18T10:58:09.065Z,445
2017-04-18T10:59:09.032Z,505
2017-04-18T11:00:09.269Z,590
2017-04-18T11:01:09.002Z,665
2017-04-18T11:02:08.988Z,725
2017-04-18T11:03:09.507Z,750
2017-04-18T11:04:08.948Z,745
2017-04-18T11:05:08.912Z,700
2017-04-18T11:06:08.883Z,690
2017-04-18T11:07:08.849Z,615
2017-04-18T11:08:09.390Z,545
2017-04-18T11:09:08.900Z,505
2017-04-18T11:10:08.799Z,460
2017-04-18T11:11:08.763Z,430
2017-04-18T11:12:08.798Z,380
2017-04-18T11:13:08.766Z,315
2017-04-18T11:14:08.724Z,265
2017-04-18T11:15:08.687Z,270
2017-04-18T11:16:08.713Z,310
2017-04-18T11:17:08.860Z,310
2017-04-18T11:18:09.059Z,280
2017-04-18T11:19:08.297Z,245
2017-04-18T11:20:08.573Z,235
2017-04-18T11:21:08.539Z,215
2017-04-18T11:22:08.575Z,205
2017-04-18T11:23:08.495Z,200
2017-04-18T11:24:08.477Z,180
2017-04-18T11:25:08.168Z,155
2017-04-18T11:26:08.432Z,130
2017-04-18T11:27:08.109Z,125
2017-04-18T11:28:08.381Z,135
2017-04-18T11:29:08.375Z,150
2017-04-18T11:30:08.379Z,160
2017-04-18T11:31:08.319Z,185
2017-04-18T11:32:08.313Z,215
2017-04-18T11:33:08.326Z,235
2017-04-18T11:34:08.421Z,235
2017-04-18T11:35:08.218Z,215
2017-04-18T11:36:08.200Z,195
2017-04-18T11:37:08.177Z,190
2017-04-18T11:38:07.854Z,210
2017-04-18T11:39:08.121Z,240
2017-04-18T11:40:08.105Z,265
2017-04-18T11:41:08.127Z,295
2017-04-18T11:42:08.050Z,350
2017-04-18T11:43:07.435Z,405
2017-04-18T11:44:07.765Z,455
2017-04-18T11:45:07.991Z,500
2017-04-18T11:46:08.422Z,580
2017-04-18T11:47:07.946Z,635
2017-04-18T11:48:07.912Z,640
2017-04-18T11:49:07.893Z,615
2017-04-18T11:50:07.863Z,590
2017-04-18T11:51:07.544Z,585
2017-04-18T11:52:07.825Z,570
2017-04-18T11:53:07.805Z,555
2017-04-18T11:54:07.468Z,550
2017-04-18T11:55:07.769Z,550
2017-04-18T11:56:07.789Z,545
2017-04-18T11:57:07.707Z,545
2017-04-18T11:58:07.682Z,550
2017-04-18T11:59:07.709Z,565
2017-04-18T12:00:07.625Z,560
2017-04-18T12:01:07.606Z,560
2017-04-18T12:02:07.630Z,575
2017-04-18T12:03:07.600Z,585
2017-04-18T12:04:07.555Z,590
2017-04-18T12:05:07.511Z,600
2017-04-18T12:06:06.664Z,555
2017-04-18T12:07:07.477Z,520
2017-04-18T12:08:07.454Z,490
2017-04-18T12:09:07.593Z,485
2017-04-18T12:10:07.489Z,465
2017-04-18T12:11:09.232Z,425
2017-04-18T12:12:07.366Z,390
2017-04-18T12:13:07.326Z,375
2017-04-18T12:14:07.320Z,355
2017-04-18T12:15:07.292Z,320
2017-04-18T12:16:07.264Z,295
2017-04-18T12:17:07.246Z,285
2017-04-18T12:18:07.219Z,260
2017-04-18T12:19:07.400Z,235
2017-04-18T12:20:07.223Z,195
2017-04-18T12:21:07.151Z,165
2017-04-18T12:22:07.127Z,155
2017-04-18T12:23:07.102Z,145
2017-04-18T12:24:07.083Z,135
2017-04-18T12:25:06.769Z,120
2017-04-18T12:26:07.036Z,110
2017-04-18T12:27:07.005Z,100
2017-04-18T12:28:06.991Z,95
2017-04-18T12:29:06.668Z,95
2017-04-18T12:30:06.940Z,125
2017-04-18T12:31:06.912Z,160
2017-04-18T12:32:06.888Z,175
2017-04-18T12:33:06.866Z,195
2017-04-18T12:34:06.533Z,205
2017-04-18T12:35:06.820Z,210
2017-04-18T12:36:06.880Z,210
2017-04-18T12:37:06.771Z,190
2017-04-18T12:38:06.747Z,170
2017-04-18T12:39:06.719Z,160
2017-04-18T12:40:06.690Z,160
2017-04-18T12:41:06.389Z,140
2017-04-18T12:42:06.684Z,105
2017-04-18T12:43:06.633Z,80
2017-04-18T12:44:06.597Z,65
2017-04-18T12:45:06.827Z,55
2017-04-18T12:46:06.558Z,45
2017-04-18T12:47:06.581Z,40
2017-04-18T12:48:06.504Z,45
2017-04-18T12:49:06.474Z,45
2017-04-18T12:50:06.465Z,50
2017-04-18T12:51:07.577Z,45
2017-04-18T12:52:06.446Z,45
2017-04-18T12:53:06.383Z,45
2017-04-18T12:54:06.351Z,50
2017-04-18T12:55:06.354Z,60
2017-04-18T12:56:06.346Z,80
2017-04-18T12:57:05.973Z,110
2017-04-18T12:58:06.242Z,130
2017-04-18T12:59:06.235Z,165
2017-04-18T13:00:06.249Z,215
2017-04-18T13:01:05.897Z,255
2017-04-18T13:02:06.134Z,295
2017-04-18T13:03:06.112Z,315
2017-04-18T13:04:06.229Z,325
2017-04-18T13:05:05.473Z,320
2017-04-18T13:06:06.053Z,315
2017-04-18T13:07:05.721Z,310
2017-04-18T13:08:06.285Z,330
2017-04-18T13:09:05.964Z,330
2017-04-18T13:10:05.946Z,330
2017-04-18T13:11:05.929Z,340
2017-04-18T13:12:06.032Z,330
2017-04-18T13:13:05.859Z,325
2017-04-18T13:14:05.534Z,300
2017-04-18T13:15:05.807Z,260
2017-04-18T13:16:05.785Z,225
2017-04-18T13:17:05.774Z,200
2017-04-18T13:18:05.737Z,200
2017-04-18T13:19:05.956Z,200
2017-04-18T13:20:05.707Z,200
2017-04-18T13:21:05.877Z,200
2017-04-18T13:22:05.558Z,200
2017-04-18T13:23:05.609Z,200
2017-04-18T13:24:05.590Z,200
2017-04-18T13:25:07.065Z,205
2017-04-18T13:26:05.556Z,210
2017-04-18T13:27:05.575Z,230
2017-04-18T13:28:05.647Z,260
2017-04-18T13:29:05.531Z,300
2017-04-18T13:30:05.441Z,325
2017-04-18T13:31:05.269Z,315
2017-04-18T13:32:05.400Z,345
2017-04-18T13:33:05.124Z,365
2017-04-18T13:34:05.395Z,360
2017-04-18T13:35:05.038Z,375
2017-04-18T13:36:05.307Z,370
2017-04-18T13:37:05.280Z,335
2017-04-18T13:38:04.955Z,310
2017-04-18T13:39:05.231Z,345
2017-04-18T13:40:05.206Z,400
2017-04-18T13:41:05.172Z,425
2017-04-18T13:42:04.558Z,440
2017-04-18T13:43:04.833Z,430
2017-04-18T13:44:05.126Z,380
2017-04-18T13:45:05.993Z,280
2017-04-18T13:46:04.749Z,230
2017-04-18T13:47:05.035Z,220
2017-04-18T13:48:04.722Z,240
2017-04-18T13:49:04.683Z,260
2017-04-18T13:50:04.960Z,290
2017-04-18T13:51:04.650Z,335
2017-04-18T13:52:04.927Z,360
2017-04-18T13:53:04.898Z,370
2017-04-18T13:54:05.117Z,375
2017-04-18T13:55:06.152Z,365
2017-04-18T13:56:04.888Z,365
2017-04-18T13:57:04.806Z,370
2017-04-18T13:58:04.472Z,365
2017-04-18T13:59:04.750Z,345
2017-04-18T14:00:04.731Z,325
2017-04-18T14:01:04.447Z,315
2017-04-18T14:02:04.381Z,305
2017-04-18T14:03:04.655Z,300
2017-04-18T14:04:05.900Z,295
2017-04-18T14:05:04.612Z,280
2017-04-18T14:06:04.657Z,265